createdAt,value
2018-09-13T00:02:19.947Z,101512.89
2018-09-13T00:04:48.880Z,101505.77
2018-09-13T00:07:17.717Z,101503.91
2018-09-13T00:09:46.745Z,101507.41
2018-09-13T00:12:16.656Z,101505.55
2018-09-13T00:14:53.163Z,101499.88
2018-09-13T00:17:22.208Z,101497.27
2018-09-13T00:19:51.263Z,101497.27
2018-09-13T00:22:20.222Z,101502.15
2018-09-13T00:24:49.257Z,101502.66
2018-09-13T00:27:18.280Z,101502.05
2018-09-13T00:29:47.136Z,101496.44
2018-09-13T00:32:16.218Z,101496.86
2018-09-13T00:34:47.851Z,101486.22
2018-09-13T00:37:16.861Z,101489.52
2018-09-13T00:39:45.941Z,101479.26
2018-09-13T00:42:16.663Z,101478.23
2018-09-13T00:44:46.537Z,101479.03
2018-09-13T00:47:15.559Z,101474.70
2018-09-13T00:49:44.639Z,101469.00
2018-09-13T00:52:13.620Z,101459.70
2018-09-13T00:54:42.664Z,101467.17
2018-09-13T00:57:11.695Z,101461.88
2018-09-13T00:59:40.751Z,101463.97
2018-09-13T01:02:09.512Z,101468.00
2018-09-13T01:04:38.488Z,101470.92
2018-09-13T01:07:07.394Z,101471.11
2018-09-13T01:09:36.232Z,101467.81
2018-09-13T01:12:05.024Z,101470.41
2018-09-13T01:14:35.447Z,101474.77
2018-09-13T01:17:04.310Z,101469.48
2018-09-13T01:19:33.270Z,101480.34
2018-09-13T01:22:02.116Z,101469.03
2018-09-13T01:24:31.072Z,101470.19
2018-09-13T01:26:59.965Z,101466.24
2018-09-13T01:29:28.801Z,101466.85
2018-09-13T01:31:57.712Z,101469.31
2018-09-13T01:34:26.629Z,101463.13
2018-09-13T01:36:55.489Z,101465.73
2018-09-13T01:39:24.316Z,101463.97
2018-09-13T01:41:53.199Z,101462.84
2018-09-13T01:44:22.360Z,101468.73
2018-09-13T01:46:51.263Z,101464.09
2018-09-13T01:49:20.176Z,101456.02
2018-09-13T01:51:49.164Z,101452.59
2018-09-13T01:54:18.117Z,101449.89
2018-09-13T01:56:46.887Z,101453.20
2018-09-13T01:59:15.824Z,101448.93
2018-09-13T02:01:44.687Z,101446.34
2018-09-13T02:04:13.653Z,101445.31
2018-09-13T02:06:42.461Z,101442.39
2018-09-13T02:09:11.960Z,101441.27
2018-09-13T02:11:40.866Z,101447.27
2018-09-13T02:14:09.857Z,101448.32
2018-09-13T02:16:38.920Z,101434.03
2018-09-13T02:19:07.947Z,101435.15
2018-09-13T02:21:36.860Z,101431.62
2018-09-13T02:24:05.813Z,101428.93
2018-09-13T02:26:34.636Z,101427.81
2018-09-13T02:29:03.629Z,101428.32
2018-09-13T02:31:32.411Z,101435.15
2018-09-13T02:34:01.347Z,101435.15
2018-09-13T02:36:30.171Z,101433.52
2018-09-13T02:38:59.540Z,101425.86
2018-09-13T02:41:28.481Z,101427.39
2018-09-13T02:43:57.384Z,101429.28
2018-09-13T02:46:26.240Z,101423.26
2018-09-13T02:48:55.152Z,101418.94
2018-09-13T02:51:23.992Z,101420.28
2018-09-13T02:53:52.892Z,101422.97
2018-09-13T02:56:21.855Z,101414.28
2018-09-13T02:58:50.793Z,101415.09
2018-09-13T03:01:19.664Z,101417.78
2018-09-13T03:03:48.424Z,101421.53
2018-09-13T03:06:17.331Z,101407.75
2018-09-13T03:08:46.270Z,101399.67
2018-09-13T03:11:15.085Z,101403.94
2018-09-13T03:13:43.832Z,101403.52
2018-09-13T03:16:12.668Z,101410.77
2018-09-13T03:18:41.505Z,101404.77
2018-09-13T03:21:10.434Z,101409.13
2018-09-13T03:23:39.460Z,101412.11
2018-09-13T03:26:08.426Z,101409.41
2018-09-13T03:28:37.356Z,101417.81
2018-09-13T03:31:06.220Z,101414.61
2018-09-13T03:33:35.193Z,101411.08
2018-09-13T03:36:04.119Z,101415.73
2018-09-13T03:38:32.900Z,101415.73
2018-09-13T03:41:01.739Z,101419.25
2018-09-13T03:43:30.566Z,101424.13
2018-09-13T03:45:59.404Z,101423.52
2018-09-13T03:48:28.181Z,101419.16
2018-09-13T03:50:59.660Z,101420.50
2018-09-13T03:53:28.548Z,101422.17
2018-09-13T03:55:57.350Z,101417.81
2018-09-13T03:58:26.164Z,101422.97
2018-09-13T04:00:55.084Z,101425.15
2018-09-13T04:03:24.205Z,101424.13
2018-09-13T04:05:53.142Z,101426.50
2018-09-13T04:08:22.112Z,101421.53
2018-09-13T04:10:50.994Z,101424.64
2018-09-13T04:13:19.971Z,101426.30
2018-09-13T04:15:48.979Z,101425.05
2018-09-13T04:18:17.860Z,101419.13
2018-09-13T04:20:46.912Z,101426.50
2018-09-13T04:23:16.013Z,101423.48
2018-09-13T04:25:44.999Z,101419.58
2018-09-13T04:28:13.999Z,101417.39
2018-09-13T04:30:42.829Z,101411.79
2018-09-13T04:33:11.652Z,101416.98
2018-09-13T04:35:40.498Z,101410.34
2018-09-13T04:38:09.481Z,101416.47
2018-09-13T04:40:38.529Z,101414.70
2018-09-13T04:43:07.364Z,101410.95
2018-09-13T04:45:36.357Z,101409.52
2018-09-13T04:48:05.402Z,101413.84
2018-09-13T04:50:34.343Z,101417.36
2018-09-13T04:53:03.184Z,101422.75
2018-09-13T04:55:32.107Z,101424.41
2018-09-13T04:58:01.024Z,101419.86
2018-09-13T05:00:29.959Z,101421.53
2018-09-13T05:02:58.873Z,101415.86
2018-09-13T05:05:27.832Z,101415.34
2018-09-13T05:07:56.782Z,101413.45
2018-09-13T05:10:25.766Z,101407.98
2018-09-13T05:12:54.773Z,101410.77
2018-09-13T05:15:23.607Z,101409.52
2018-09-13T05:17:52.453Z,101406.30
2018-09-13T05:20:21.380Z,101411.88
2018-09-13T05:22:50.276Z,101412.94
2018-09-13T05:25:19.186Z,101412.72
2018-09-13T05:27:48.171Z,101415.63
2018-09-13T05:30:17.065Z,101412.94
2018-09-13T05:32:46.211Z,101421.11
2018-09-13T05:35:15.149Z,101415.83
2018-09-13T05:37:44.156Z,101419.31
2018-09-13T05:40:13.046Z,101417.78
2018-09-13T05:42:41.964Z,101421.50
2018-09-13T05:45:10.798Z,101419.22
2018-09-13T05:47:39.797Z,101424.51
2018-09-13T05:50:08.831Z,101418.38
2018-09-13T05:52:37.844Z,101423.16
2018-09-13T05:55:06.759Z,101424.09
2018-09-13T05:57:35.727Z,101423.96
2018-09-13T06:00:05.283Z,101416.67
2018-09-13T06:02:34.283Z,101417.47
2018-09-13T06:05:03.232Z,101421.09
2018-09-13T06:07:32.281Z,101421.78
2018-09-13T06:10:01.295Z,101419.27
2018-09-13T06:12:30.250Z,101423.39
2018-09-13T06:14:59.265Z,101421.06
2018-09-13T06:17:28.266Z,101421.44
2018-09-13T06:19:57.492Z,101429.84
2018-09-13T06:22:26.411Z,101429.61
2018-09-13T06:24:55.432Z,101426.41
2018-09-13T06:27:24.694Z,101429.59
2018-09-13T06:29:53.705Z,101426.33
2018-09-13T06:32:23.889Z,101423.33
2018-09-13T06:34:52.755Z,101425.45
2018-09-13T06:37:21.692Z,101432.12
2018-09-13T06:39:50.581Z,101421.59
2018-09-13T06:42:22.151Z,101422.67
2018-09-13T06:44:51.131Z,101424.74
2018-09-13T06:47:20.085Z,101417.48
2018-09-13T06:49:48.988Z,101417.08
2018-09-13T06:52:19.016Z,101418.19
2018-09-13T06:54:47.969Z,101419.33
2018-09-13T06:57:17.027Z,101413.39
2018-09-13T06:59:46.132Z,101419.17
2018-09-13T07:02:16.250Z,101415.92
2018-09-13T07:04:45.193Z,101418.59
2018-09-13T07:07:14.278Z,101414.06
2018-09-13T07:09:43.241Z,101413.30
2018-09-13T07:12:12.318Z,101413.27
2018-09-13T07:14:41.264Z,101417.53
2018-09-13T07:17:10.151Z,101421.13
2018-09-13T07:19:39.062Z,101418.56
2018-09-13T07:22:08.095Z,101417.78
2018-09-13T07:24:37.004Z,101412.63
2018-09-13T07:27:06.629Z,101410.30
2018-09-13T07:29:35.618Z,101414.98
2018-09-13T07:32:10.332Z,101410.55
2018-09-13T07:34:40.290Z,101408.30
2018-09-13T07:37:11.312Z,101411.93
2018-09-13T07:39:40.586Z,101411.91
2018-09-13T07:42:27.434Z,101410.49
2018-09-13T07:44:56.450Z,101414.61
2018-09-13T07:47:25.895Z,101419.34
2018-09-13T07:49:55.608Z,101420.66
2018-09-13T07:52:40.556Z,101428.84
2018-09-13T07:55:09.950Z,101436.20
2018-09-13T07:57:39.475Z,101430.75
2018-09-13T08:00:09.240Z,101434.66
2018-09-13T08:02:38.267Z,101429.39
2018-09-13T08:05:07.343Z,101436.48
2018-09-13T08:07:36.330Z,101435.70
2018-09-13T08:10:05.311Z,101432.98
2018-09-13T08:12:52.750Z,101437.94
2018-09-13T08:15:21.758Z,101438.41
2018-09-13T08:17:50.779Z,101441.31
2018-09-13T08:20:19.941Z,101442.09
2018-09-13T08:22:49.211Z,101446.21
2018-09-13T08:25:18.088Z,101447.82
2018-09-13T08:27:47.142Z,101446.02
2018-09-13T08:30:16.100Z,101458.45
2018-09-13T08:32:45.264Z,101456.54
2018-09-13T08:35:14.249Z,101460.78
2018-09-13T08:37:43.369Z,101459.80
2018-09-13T08:40:12.720Z,101469.97
2018-09-13T08:42:42.832Z,101466.99
2018-09-13T08:45:12.626Z,101467.98
2018-09-13T08:47:42.448Z,101469.51
2018-09-13T08:50:11.845Z,101469.06
2018-09-13T08:52:40.882Z,101468.73
2018-09-13T08:55:10.478Z,101462.54
2018-09-13T08:57:40.106Z,101454.31
2018-09-13T09:00:11.443Z,101442.27
2018-09-13T09:02:41.751Z,101447.86
2018-09-13T09:05:10.776Z,101448.72
2018-09-13T09:07:40.587Z,101450.12
2018-09-13T09:10:09.605Z,101458.22
2018-09-13T09:12:39.777Z,101452.52
2018-09-13T09:15:08.920Z,101458.45
2018-09-13T09:17:37.846Z,101454.17
2018-09-13T09:20:07.220Z,101448.48
2018-09-13T09:22:39.515Z,101445.13
2018-09-13T09:25:08.677Z,101454.35
2018-09-13T09:27:37.869Z,101446.73
2018-09-13T09:30:06.866Z,101444.66
2018-09-13T09:32:36.231Z,101440.25
2018-09-13T09:35:05.594Z,101437.64
2018-09-13T09:37:34.609Z,101434.29
2018-09-13T09:40:03.478Z,101434.86
2018-09-13T09:43:13.508Z,101434.16
2018-09-13T09:45:42.573Z,101437.33
2018-09-13T09:48:12.005Z,101438.29
2018-09-13T09:50:40.863Z,101442.14
2018-09-13T09:53:17.436Z,101439.08
2018-09-13T09:55:46.872Z,101436.38
2018-09-13T09:58:16.012Z,101442.98
2018-09-13T10:00:50.169Z,101449.01
2018-09-13T10:03:27.503Z,101440.55
2018-09-13T10:05:57.037Z,101438.93
2018-09-13T10:08:26.668Z,101442.45
2018-09-13T10:10:56.161Z,101448.13
2018-09-13T10:13:28.396Z,101446.17
2018-09-13T10:16:02.691Z,101450.52
2018-09-13T10:18:37.246Z,101441.46
2018-09-13T10:21:11.718Z,101439.41
2018-09-13T10:23:46.111Z,101443.63
2018-09-13T10:26:20.213Z,101437.42
2018-09-13T10:28:54.256Z,101435.28
2018-09-13T10:31:28.362Z,101436.39
2018-09-13T10:34:10.074Z,101439.12
2018-09-13T10:36:45.234Z,101436.38
2018-09-13T10:39:20.314Z,101425.09
2018-09-13T10:42:13.749Z,101423.12
2018-09-13T10:44:47.845Z,101426.13
2018-09-13T10:47:22.259Z,101417.97
2018-09-13T10:49:56.388Z,101418.73
2018-09-13T10:52:27.801Z,101419.52
2018-09-13T10:55:04.195Z,101418.70
2018-09-13T10:57:38.335Z,101407.63
2018-09-13T11:00:08.635Z,101413.67
2018-09-13T11:02:38.081Z,101417.80
2018-09-13T11:05:14.661Z,101416.45
2018-09-13T11:07:44.893Z,101419.99
2018-09-13T11:10:19.881Z,101419.16
2018-09-13T11:12:58.431Z,101417.45
2018-09-13T11:15:38.004Z,101422.21
2018-09-13T11:18:13.579Z,101410.98
2018-09-13T11:20:44.036Z,101414.23
2018-09-13T11:23:44.308Z,101414.52
2018-09-13T11:26:15.219Z,101411.28
2018-09-13T11:28:44.276Z,101413.28
2018-09-13T11:31:13.690Z,101413.95
2018-09-13T11:33:48.470Z,101410.70
2018-09-13T11:39:00.275Z,101398.02
2018-09-13T11:41:29.367Z,101399.97
2018-09-13T11:44:10.306Z,101398.55
2018-09-13T11:46:39.385Z,101397.48
2018-09-13T11:49:54.022Z,101394.88
2018-09-13T11:52:23.841Z,101386.28
2018-09-13T11:54:57.453Z,101391.46
2018-09-13T11:57:26.565Z,101386.92
2018-09-13T11:59:56.574Z,101392.67
2018-09-13T12:02:25.711Z,101382.27
2018-09-13T12:05:05.607Z,101379.52
2018-09-13T12:07:35.030Z,101373.47
2018-09-13T12:10:15.281Z,101377.82
2018-09-13T12:12:47.160Z,101380.88
2018-09-13T12:15:19.345Z,101380.34
2018-09-13T12:17:50.681Z,101381.11
2018-09-13T12:20:24.011Z,101379.37
2018-09-13T12:23:03.089Z,101377.61
2018-09-13T12:25:38.095Z,101371.97
2018-09-13T12:28:13.841Z,101366.70
2018-09-13T12:30:48.989Z,101363.17
2018-09-13T12:33:19.000Z,101361.59
2018-09-13T12:35:49.165Z,101362.83
2018-09-13T12:38:21.006Z,101359.05
2018-09-13T12:40:50.592Z,101351.56
2018-09-13T12:43:20.817Z,101357.44
2018-09-13T12:45:53.016Z,101350.61
2018-09-13T12:48:22.395Z,101358.23
2018-09-13T12:50:51.947Z,101349.25
2018-09-13T12:53:21.651Z,101353.59
2018-09-13T12:55:58.105Z,101348.64
2018-09-13T12:58:28.008Z,101340.81
2018-09-13T13:00:58.244Z,101338.90
2018-09-13T13:03:27.645Z,101328.46
2018-09-13T13:05:57.646Z,101329.01
2018-09-13T13:08:29.816Z,101326.64
2018-09-13T13:10:58.744Z,101327.71
2018-09-13T13:13:27.851Z,101328.23
2018-09-13T13:16:04.574Z,101339.23
2018-09-13T13:18:33.746Z,101341.00
2018-09-13T13:21:03.024Z,101340.77
2018-09-13T13:23:33.636Z,101340.17
2018-09-13T13:26:03.931Z,101337.40
2018-09-13T13:28:46.005Z,101333.02
2018-09-13T13:37:13.262Z,101324.87
2018-09-13T13:39:42.252Z,101323.68
2018-09-13T13:42:18.987Z,101319.41
2018-09-13T13:44:58.761Z,101314.21
2018-09-13T13:47:36.848Z,101305.33
2018-09-13T13:53:27.275Z,101290.22
2018-09-13T13:58:52.323Z,101280.02
2018-09-13T14:01:21.340Z,101281.25
2018-09-13T14:03:52.660Z,101280.45
2018-09-13T14:06:26.180Z,101277.26
2018-09-13T14:08:56.173Z,101277.13
2018-09-13T14:11:26.069Z,101277.27
2018-09-13T14:13:55.342Z,101285.19
2018-09-13T14:19:27.910Z,101291.68
2018-09-13T14:21:57.539Z,101300.52
2018-09-13T14:24:30.465Z,101306.03
2018-09-13T14:27:05.708Z,101303.42
2018-09-13T14:29:36.069Z,101299.47
2018-09-13T14:32:09.057Z,101295.39
2018-09-13T14:34:42.420Z,101294.87
2018-09-13T14:37:12.749Z,101298.16
2018-09-13T14:39:43.830Z,101295.72
2018-09-13T14:42:14.854Z,101294.57
2018-09-13T14:44:46.149Z,101294.32
2018-09-13T14:47:20.098Z,101292.45
2018-09-13T14:49:50.269Z,101286.94
2018-09-13T14:52:19.588Z,101279.08
2018-09-13T14:54:56.237Z,101277.00
2018-09-13T14:57:30.319Z,101274.02
2018-09-13T15:02:47.719Z,101272.12
2018-09-13T15:05:19.171Z,101281.25
2018-09-13T15:07:53.413Z,101282.13
2018-09-13T15:10:38.249Z,101287.17
2018-09-13T15:13:15.213Z,101281.61
2018-09-13T15:15:50.980Z,101275.70
2018-09-13T15:18:20.259Z,101279.00
2018-09-13T15:20:56.545Z,101275.23
2018-09-13T15:23:34.758Z,101268.95
2018-09-13T15:26:15.750Z,101280.38
2018-09-13T15:28:45.172Z,101271.35
2018-09-13T15:31:15.818Z,101273.53
2018-09-13T15:33:45.220Z,101267.52
2018-09-13T15:36:15.684Z,101267.80
2018-09-13T15:38:45.701Z,101261.25
2018-09-13T15:41:15.837Z,101267.84
2018-09-13T15:43:45.021Z,101262.64
2018-09-13T15:46:18.435Z,101261.02
2018-09-13T15:48:47.888Z,101256.11
2018-09-13T15:51:18.361Z,101259.14
2018-09-13T15:53:48.564Z,101264.00
2018-09-13T15:56:19.930Z,101263.02
2018-09-13T15:58:49.192Z,101263.63
2018-09-13T16:01:18.509Z,101256.00
2018-09-13T16:03:47.384Z,101253.16
2018-09-13T16:06:16.375Z,101263.23
2018-09-13T16:08:45.470Z,101261.05
2018-09-13T16:11:15.126Z,101256.91
2018-09-13T16:13:44.023Z,101253.26
2018-09-13T16:16:26.629Z,101262.12
2018-09-13T16:18:56.576Z,101255.90
2018-09-13T16:21:28.068Z,101265.09
2018-09-13T16:23:57.518Z,101260.66
2018-09-13T16:26:26.579Z,101262.10
2018-09-13T16:28:56.485Z,101263.34
2018-09-13T16:31:25.809Z,101257.33
2018-09-13T16:33:55.888Z,101258.86
2018-09-13T16:36:27.724Z,101261.55
2018-09-13T16:39:02.259Z,101266.12
2018-09-13T16:41:45.758Z,101256.18
2018-09-13T16:44:24.388Z,101259.12
2018-09-13T16:47:00.764Z,101257.05
2018-09-13T16:49:30.345Z,101253.03
2018-09-13T16:52:00.671Z,101253.02
2018-09-13T16:54:29.687Z,101258.34
2018-09-13T16:57:06.787Z,101257.08
2018-09-13T16:59:35.734Z,101257.33
2018-09-13T17:02:05.021Z,101260.86
2018-09-13T17:04:34.538Z,101259.61
2018-09-13T17:07:06.442Z,101264.16
2018-09-13T17:09:35.812Z,101266.82
2018-09-13T17:12:05.665Z,101266.09
2018-09-13T17:14:35.005Z,101274.03
2018-09-13T17:17:11.828Z,101271.30
2018-09-13T17:20:09.509Z,101277.30
2018-09-13T17:22:39.085Z,101275.11
2018-09-13T17:25:08.203Z,101273.13
2018-09-13T17:27:45.385Z,101274.09
2018-09-13T17:30:14.387Z,101273.66
2018-09-13T17:32:43.262Z,101276.59
2018-09-13T17:35:12.213Z,101278.38
2018-09-13T17:37:44.556Z,101283.25
2018-09-13T17:40:13.456Z,101282.68
2018-09-13T17:42:42.698Z,101281.75
2018-09-13T17:45:11.740Z,101285.65
2018-09-13T17:47:40.691Z,101284.65
2018-09-13T17:50:09.777Z,101284.30
2018-09-13T17:52:38.718Z,101290.65
2018-09-13T17:55:07.886Z,101293.38
2018-09-13T17:57:36.767Z,101296.87
2018-09-13T18:00:06.704Z,101298.27
2018-09-13T18:02:35.735Z,101297.17
2018-09-13T18:05:04.683Z,101302.16
2018-09-13T18:07:33.675Z,101306.30
2018-09-13T18:10:02.624Z,101306.69
2018-09-13T18:12:31.507Z,101307.59
2018-09-13T18:15:00.570Z,101302.49
2018-09-13T18:17:29.513Z,101301.19
2018-09-13T18:19:58.456Z,101306.28
2018-09-13T18:22:27.454Z,101303.84
2018-09-13T18:24:56.487Z,101309.17
2018-09-13T18:27:25.329Z,101307.83
2018-09-13T18:29:54.325Z,101313.52
2018-09-13T18:32:23.247Z,101319.22
2018-09-13T18:34:52.284Z,101320.11
2018-09-13T18:37:21.356Z,101319.14
2018-09-13T18:39:50.366Z,101325.08
2018-09-13T18:42:19.276Z,101323.00
2018-09-13T18:44:48.152Z,101324.35
2018-09-13T18:47:17.180Z,101326.02
2018-09-13T18:49:46.048Z,101329.97
2018-09-13T18:52:15.023Z,101335.86
2018-09-13T18:54:44.061Z,101335.75
2018-09-13T18:57:13.276Z,101337.10
2018-09-13T18:59:42.327Z,101342.68
2018-09-13T19:02:11.181Z,101339.41
2018-09-13T19:04:40.177Z,101347.12
2018-09-13T19:07:09.123Z,101343.61
2018-09-13T19:09:38.008Z,101345.28
2018-09-13T19:12:06.947Z,101347.55
2018-09-13T19:14:36.015Z,101350.16
2018-09-13T19:17:05.059Z,101349.11
2018-09-13T19:19:33.936Z,101346.84
2018-09-13T19:22:02.931Z,101349.31
2018-09-13T19:24:31.889Z,101352.02
2018-09-13T19:27:00.921Z,101353.95
2018-09-13T19:29:29.866Z,101355.89
2018-09-13T19:31:58.848Z,101357.12
2018-09-13T19:34:27.784Z,101362.02
2018-09-13T19:36:56.794Z,101364.88
2018-09-13T19:39:25.625Z,101375.00
2018-09-13T19:41:54.594Z,101372.61
2018-09-13T19:44:23.565Z,101373.95
2018-09-13T19:46:52.702Z,101377.13
2018-09-13T19:49:21.606Z,101385.68
2018-09-13T19:51:50.624Z,101381.10
2018-09-13T19:54:19.621Z,101383.27
2018-09-13T19:56:48.572Z,101383.66
2018-09-13T19:59:17.472Z,101383.66
2018-09-13T20:01:46.385Z,101381.20
2018-09-13T20:04:15.273Z,101385.13
2018-09-13T20:06:44.182Z,101384.84
2018-09-13T20:09:13.294Z,101386.19
2018-09-13T20:11:42.364Z,101380.64
2018-09-13T20:14:11.351Z,101381.03
2018-09-13T20:16:40.351Z,101382.77
2018-09-13T20:19:09.334Z,101381.83
2018-09-13T20:21:38.243Z,101385.45
2018-09-13T20:24:07.187Z,101382.16
2018-09-13T20:26:36.155Z,101377.86
2018-09-13T20:29:04.978Z,101375.95
2018-09-13T20:31:33.841Z,101381.03
2018-09-13T20:34:02.663Z,101380.78
2018-09-13T20:36:31.563Z,101376.75
2018-09-13T20:39:00.484Z,101380.45
2018-09-13T20:41:29.547Z,101380.31
2018-09-13T20:43:58.424Z,101384.30
2018-09-13T20:46:27.361Z,101379.98
2018-09-13T20:48:56.335Z,101376.39
2018-09-13T20:51:25.145Z,101380.88
2018-09-13T20:53:54.007Z,101375.22
2018-09-13T20:56:23.000Z,101381.27
2018-09-13T20:58:52.012Z,101379.97
2018-09-13T21:01:21.064Z,101375.13
2018-09-13T21:03:49.896Z,101374.59
2018-09-13T21:06:18.887Z,101375.86
2018-09-13T21:08:51.041Z,101382.73
2018-09-13T21:11:19.990Z,101377.75
2018-09-13T21:13:48.832Z,101381.58
2018-09-13T21:16:17.745Z,101384.92
2018-09-13T21:18:46.670Z,101391.36
2018-09-13T21:21:15.705Z,101386.36
2018-09-13T21:23:44.638Z,101383.80
2018-09-13T21:26:14.006Z,101384.55
2018-09-13T21:28:42.946Z,101388.64
2018-09-13T21:31:11.954Z,101394.38
2018-09-13T21:33:40.849Z,101392.92
2018-09-13T21:36:09.809Z,101389.94
2018-09-13T21:38:38.772Z,101393.61
2018-09-13T21:41:07.664Z,101393.78
2018-09-13T21:43:36.485Z,101385.73
2018-09-13T21:46:05.522Z,101394.58
2018-09-13T21:48:34.337Z,101394.65
2018-09-13T21:51:03.204Z,101399.73
2018-09-13T21:53:32.117Z,101396.39
2018-09-13T21:56:00.987Z,101393.91
2018-09-13T21:58:29.907Z,101394.86
2018-09-13T22:00:58.970Z,101396.91
2018-09-13T22:03:27.793Z,101401.45
2018-09-13T22:05:56.736Z,101403.75
2018-09-13T22:08:25.692Z,101394.19
2018-09-13T22:10:54.522Z,101397.93
2018-09-13T22:13:23.504Z,101397.81
2018-09-13T22:15:52.392Z,101402.97
2018-09-13T22:18:21.369Z,101406.00
2018-09-13T22:20:50.171Z,101408.56
2018-09-13T22:23:18.985Z,101407.72
2018-09-13T22:25:47.927Z,101407.55
2018-09-13T22:28:16.745Z,101406.81
2018-09-13T22:30:45.592Z,101410.30
2018-09-13T22:33:14.462Z,101405.05
2018-09-13T22:35:43.381Z,101404.66
2018-09-13T22:38:12.432Z,101410.30
2018-09-13T22:40:41.412Z,101408.33
2018-09-13T22:43:10.397Z,101408.17
2018-09-13T22:45:39.282Z,101408.27
2018-09-13T22:48:08.272Z,101404.01
2018-09-13T22:50:37.220Z,101407.90
2018-09-13T22:53:06.260Z,101408.35
2018-09-13T22:55:35.229Z,101412.56
2018-09-13T22:58:04.157Z,101410.41
2018-09-13T23:00:32.927Z,101400.95
2018-09-13T23:03:01.762Z,101405.25
2018-09-13T23:05:30.724Z,101409.22
2018-09-13T23:07:59.653Z,101411.76
2018-09-13T23:10:28.607Z,101409.16
2018-09-13T23:12:57.529Z,101409.11
2018-09-13T23:15:26.350Z,101406.44
2018-09-13T23:17:55.294Z,101411.00
2018-09-13T23:20:24.228Z,101407.63
2018-09-13T23:22:53.137Z,101409.31
2018-09-13T23:25:22.032Z,101420.45
2018-09-13T23:27:50.963Z,101420.02
2018-09-13T23:30:19.887Z,101416.78
2018-09-13T23:32:48.844Z,101411.28
2018-09-13T23:35:17.757Z,101417.51
2018-09-13T23:37:46.757Z,101418.02
2018-09-13T23:40:15.850Z,101412.29
2018-09-13T23:42:44.604Z,101422.14
2018-09-13T23:45:13.589Z,101429.70
2018-09-13T23:47:42.637Z,101423.22
2018-09-13T23:50:11.525Z,101431.14
2018-09-13T23:52:40.441Z,101422.98
2018-09-13T23:55:09.291Z,101423.23
2018-09-13T23:57:38.265Z,101421.55
